Time;durP1;ratioP1;P1;durP2;ratioP2;P2;SDS_P1;SDS_P2;PMS_P1;PMS_P2;Temp;Humidity;BMP_temperature;BMP_pressure;BME280_temperature;BME280_humidity;BME280_pressure;Samples;Min_cycle;Max_cycle;Signal;HPM_P1;HPM_P2
2021/06/13 00:01:05;;;;;;;10.18;3.15;;;11.20;99.90;;;;;;5076949;28;20048;-77
2021/06/13 00:03:30;;;;;;;6.43;2.30;;;11.20;99.90;;;;;;5058356;28;20482;-77
2021/06/13 00:05:56;;;;;;;8.18;2.40;;;11.20;99.90;;;;;;5058284;28;20086;-77
2021/06/13 00:08:21;;;;;;;8.07;3.63;;;11.10;99.90;;;;;;5076501;28;20028;-78
2021/06/13 00:10:47;;;;;;;11.50;3.72;;;11.20;99.90;;;;;;5058311;28;20044;-78
2021/06/13 00:13:13;;;;;;;10.00;2.58;;;11.20;99.90;;;;;;5076602;28;20024;-78
2021/06/13 00:15:38;;;;;;;10.27;2.72;;;11.20;99.90;;;;;;5076929;28;20103;-78
2021/06/13 00:18:04;;;;;;;11.27;2.40;;;11.10;99.90;;;;;;5058664;28;20025;-78
2021/06/13 00:20:29;;;;;;;12.48;3.15;;;11.10;99.90;;;;;;5058469;28;20094;-78
2021/06/13 00:22:56;;;;;;;9.27;2.75;;;11.10;99.90;;;;;;5057937;28;20056;-78
2021/06/13 00:25:23;;;;;;;5.80;1.83;;;11.00;99.90;;;;;;5080148;28;20021;-78
2021/06/13 00:27:49;;;;;;;10.73;3.17;;;11.30;99.90;;;;;;5061889;28;20017;-78
2021/06/13 00:30:15;;;;;;;14.70;3.30;;;10.90;99.90;;;;;;5062045;28;20025;-78
2021/06/13 00:32:41;;;;;;;9.48;2.95;;;11.00;99.90;;;;;;5080551;28;20031;-78
2021/06/13 00:35:08;;;;;;;12.15;2.47;;;11.00;99.90;;;;;;5174539;22;20076;-79
2021/06/13 00:37:34;;;;;;;11.93;3.20;;;11.00;99.90;;;;;;5029509;28;20604;-79
2021/06/13 00:39:59;;;;;;;9.48;2.75;;;10.90;99.90;;;;;;5045357;28;20064;-79
2021/06/13 00:42:25;;;;;;;13.45;3.50;;;10.90;99.90;;;;;;5045152;28;20123;-79
2021/06/13 00:44:51;;;;;;;11.30;2.35;;;10.90;99.90;;;;;;5027155;28;20033;-79
2021/06/13 00:47:17;;;;;;;14.18;3.25;;;10.90;99.90;;;;;;5019170;28;20484;-79
2021/06/13 00:49:43;;;;;;;9.82;2.58;;;10.90;99.90;;;;;;5019538;28;20075;-79
2021/06/13 00:52:08;;;;;;;7.70;2.10;;;10.80;99.90;;;;;;5019043;28;20548;-78
2021/06/13 00:54:37;;;;;;;6.90;2.85;;;10.80;99.90;;;;;;5019179;28;20071;-78
2021/06/13 00:57:03;;;;;;;9.13;2.20;;;10.90;99.90;;;;;;5036585;28;20025;-78
2021/06/13 00:59:28;;;;;;;8.32;2.97;;;10.90;99.90;;;;;;5036592;28;20022;-78
2021/06/13 01:01:54;;;;;;;9.25;2.45;;;10.90;99.90;;;;;;5036565;28;20021;-78
2021/06/13 01:04:19;;;;;;;12.85;3.60;;;10.80;99.90;;;;;;5036556;28;20030;-78
2021/06/13 01:07:04;;;;;;;8.55;2.70;;;10.80;99.90;;;;;;5018692;28;20059;-78
2021/06/13 01:09:38;;;;;;;9.18;2.90;;;10.80;99.90;;;;;;5017781;28;20021;-78
2021/06/13 01:12:15;;;;;;;9.65;2.90;;;10.80;99.90;;;;;;5036751;28;20022;-78
2021/06/13 01:15:01;;;;;;;7.93;2.70;;;10.80;99.90;;;;;;5019025;28;20044;-78
2021/06/13 01:17:31;;;;;;;10.90;2.72;;;10.70;99.90;;;;;;5032256;28;20018;-78
2021/06/13 01:20:09;;;;;;;12.05;3.15;;;10.70;99.90;;;;;;5018641;28;20516;-79
2021/06/13 01:23:13;;;;;;;14.20;2.97;;;10.70;99.90;;;;;;5036854;28;20032;-78
2021/06/13 01:26:17;;;;;;;11.48;2.88;;;10.70;99.90;;;;;;5035858;28;20120;-78
2021/06/13 01:28:50;;;;;;;19.45;3.22;;;10.70;99.90;;;;;;5019425;28;20044;-77
2021/06/13 01:31:18;;;;;;;9.05;2.75;;;10.70;99.90;;;;;;5035536;28;20018;-77
2021/06/13 01:33:47;;;;;;;13.23;3.10;;;10.70;99.90;;;;;;5035330;28;20051;-77
2021/06/13 01:36:15;;;;;;;12.32;3.50;;;10.60;99.90;;;;;;5035232;28;20516;-77
2021/06/13 01:38:44;;;;;;;12.27;3.50;;;10.60;99.90;;;;;;5037990;28;20018;-78
2021/06/13 01:41:13;;;;;;;9.60;2.80;;;10.60;99.90;;;;;;5039445;28;20079;-78
2021/06/13 01:43:39;;;;;;;;;;;10.60;99.90;;;;;;5041092;28;20447;-79
2021/06/13 01:46:07;;;;;;;15.48;3.10;;;10.60;99.90;;;;;;5041025;28;19999;-78
2021/06/13 01:48:35;;;;;;;12.20;3.22;;;10.60;99.90;;;;;;5041546;28;20028;-78
2021/06/13 01:51:01;;;;;;;8.57;2.83;;;10.60;99.90;;;;;;5042536;28;20429;-78
2021/06/13 01:53:29;;;;;;;9.68;3.70;;;10.60;99.90;;;;;;5023520;28;20014;-79
2021/06/13 01:55:56;;;;;;;7.72;3.03;;;10.50;99.90;;;;;;5024873;28;20029;-79
2021/06/13 01:58:22;;;;;;;7.22;2.85;;;10.60;99.90;;;;;;5025523;28;20375;-79
2021/06/13 02:00:49;;;;;;;11.75;3.13;;;10.50;99.90;;;;;;5042114;28;20029;-79
2021/06/13 02:03:16;;;;;;;12.05;3.28;;;10.50;99.90;;;;;;5041828;28;20078;-80
2021/06/13 02:05:44;;;;;;;11.60;3.05;;;10.50;99.90;;;;;;5018665;28;20024;-78
2021/06/13 02:08:11;;;;;;;10.07;3.40;;;10.50;99.90;;;;;;5035424;28;20100;-79
2021/06/13 02:10:40;;;;;;;15.27;3.67;;;10.40;99.90;;;;;;5017558;28;20017;-79
2021/06/13 02:13:08;;;;;;;9.57;3.72;;;10.50;99.90;;;;;;5036267;28;20433;-79
2021/06/13 02:15:36;;;;;;;16.83;4.53;;;10.40;99.90;;;;;;5037989;28;20022;-79
2021/06/13 02:18:04;;;;;;;12.07;3.77;;;10.50;99.90;;;;;;5019691;28;20021;-79
2021/06/13 02:20:31;;;;;;;14.02;3.33;;;10.50;99.90;;;;;;5036709;28;20430;-79
2021/06/13 02:22:58;;;;;;;10.90;3.50;;;10.50;99.90;;;;;;5019748;28;20036;-79
2021/06/13 02:25:24;;;;;;;16.98;5.07;;;10.40;99.90;;;;;;5037501;28;20022;-79
2021/06/13 02:27:57;;;;;;;11.60;4.28;;;10.40;99.90;;;;;;5037536;28;20017;-79
2021/06/13 02:30:25;;;;;;;15.23;4.55;;;10.40;99.90;;;;;;5019964;28;20072;-79
2021/06/13 02:32:51;;;;;;;11.17;3.87;;;10.40;99.90;;;;;;5019212;28;20036;-78
2021/06/13 02:35:18;;;;;;;15.25;3.70;;;10.40;99.90;;;;;;5034937;28;20466;-78
2021/06/13 02:37:45;;;;;;;13.60;3.58;;;10.40;99.90;;;;;;5036338;28;20037;-78
2021/06/13 02:40:14;;;;;;;13.65;3.33;;;10.40;99.90;;;;;;5038197;28;20454;-79
2021/06/13 02:42:39;;;;;;;13.52;4.10;;;10.40;99.90;;;;;;5020928;28;20036;-80
2021/06/13 02:45:10;;;;;;;9.05;3.58;;;10.30;99.90;;;;;;5039289;28;20025;-79
2021/06/13 02:47:36;;;;;;;11.65;3.70;;;10.30;99.90;;;;;;5020436;28;20026;-79
2021/06/13 02:50:05;;;;;;;11.73;2.90;;;10.30;99.90;;;;;;5035696;28;20021;-79
2021/06/13 02:52:55;;;;;;;10.65;3.10;;;10.30;99.90;;;;;;5035261;28;20036;-78
2021/06/13 02:55:27;;;;;;;15.18;3.47;;;10.30;99.90;;;;;;5033659;28;20425;-77
2021/06/13 02:58:01;;;;;;;8.68;3.47;;;10.20;99.90;;;;;;5033398;28;20048;-77
2021/06/13 03:00:28;;;;;;;9.90;2.88;;;10.20;99.90;;;;;;5015452;28;20025;-77
2021/06/13 03:02:56;;;;;;;9.05;3.15;;;10.20;99.90;;;;;;5032665;28;20394;-77
2021/06/13 03:05:25;;;;;;;10.18;3.30;;;10.20;99.90;;;;;;5013778;28;20022;-77
2021/06/13 03:07:52;;;;;;;7.57;3.00;;;10.20;99.90;;;;;;5013855;28;20026;-77
2021/06/13 03:10:18;;;;;;;11.40;3.65;;;10.20;99.90;;;;;;5012338;28;20073;-78
2021/06/13 03:12:46;;;;;;;10.13;3.30;;;10.10;99.90;;;;;;5013569;28;20037;-77
2021/06/13 03:15:12;;;;;;;7.72;2.58;;;10.10;99.90;;;;;;5020228;28;20025;-78
2021/06/13 03:17:40;;;;;;;11.27;2.60;;;10.00;99.90;;;;;;5035042;28;20034;-79
2021/06/13 03:20:09;;;;;;;14.27;3.50;;;10.00;99.90;;;;;;5037620;28;20030;-79
2021/06/13 03:22:39;;;;;;;6.82;2.53;;;10.00;99.90;;;;;;5019759;28;20076;-80
2021/06/13 03:25:07;;;;;;;16.23;2.67;;;10.00;99.90;;;;;;5038762;28;20082;-79
2021/06/13 03:27:35;;;;;;;11.90;2.92;;;10.00;99.90;;;;;;5038362;28;20025;-80
2021/06/13 03:30:01;;;;;;;11.13;3.35;;;9.90;99.90;;;;;;5038405;28;20559;-80
2021/06/13 03:32:27;;;;;;;13.57;3.13;;;10.00;99.90;;;;;;5040666;28;20030;-80
2021/06/13 03:34:54;;;;;;;7.82;2.28;;;10.00;99.90;;;;;;5041385;28;20040;-80
2021/06/13 03:37:20;;;;;;;12.57;3.53;;;10.00;99.90;;;;;;5041420;28;20495;-80
2021/06/13 03:39:46;;;;;;;8.45;2.53;;;9.90;99.90;;;;;;5023365;28;20478;-80
2021/06/13 03:42:13;;;;;;;9.63;2.70;;;9.90;99.90;;;;;;5041054;28;20371;-80
2021/06/13 03:44:40;;;;;;;12.55;3.88;;;10.00;99.90;;;;;;5040830;28;20028;-81
2021/06/13 03:47:06;;;;;;;10.45;2.75;;;9.90;99.90;;;;;;5040908;28;20029;-80
2021/06/13 03:49:32;;;;;;;7.75;2.97;;;10.00;99.90;;;;;;5026313;28;20026;-79
2021/06/13 03:51:59;;;;;;;13.00;3.00;;;10.00;99.90;;;;;;5026745;28;20014;-79
2021/06/13 03:54:24;;;;;;;10.48;3.08;;;10.00;99.90;;;;;;5044782;28;20041;-79
2021/06/13 03:56:53;;;;;;;17.35;3.95;;;10.10;99.90;;;;;;5025151;28;20486;-78
2021/06/13 03:59:26;;;;;;;8.98;3.40;;;10.20;99.90;;;;;;5039153;28;20044;-78
2021/06/13 04:01:53;;;;;;;8.32;3.25;;;10.30;99.90;;;;;;5039718;28;20026;-79
2021/06/13 04:04:20;;;;;;;12.02;2.97;;;10.30;99.90;;;;;;5039069;28;20079;-78
2021/06/13 04:06:47;;;;;;;11.95;3.85;;;10.30;99.90;;;;;;5039069;28;20545;-78
2021/06/13 04:09:16;;;;;;;11.90;3.40;;;10.40;99.90;;;;;;5039710;28;20025;-78
2021/06/13 04:11:43;;;;;;;10.43;3.00;;;10.50;99.90;;;;;;5039824;28;20017;-79
2021/06/13 04:14:11;;;;;;;12.75;3.13;;;10.60;99.90;;;;;;5039219;28;20029;-78
2021/06/13 04:16:39;;;;;;;9.27;2.93;;;10.60;99.90;;;;;;5038994;28;20033;-79
2021/06/13 04:19:05;;;;;;;7.63;2.83;;;10.70;99.90;;;;;;5039387;28;20268;-78
2021/06/13 04:21:31;;;;;;;15.35;3.53;;;10.80;99.90;;;;;;5021141;28;20035;-78
2021/06/13 04:24:00;;;;;;;8.23;3.10;;;10.90;99.90;;;;;;5038982;28;20033;-79
2021/06/13 04:26:26;;;;;;;7.07;2.42;;;11.00;99.90;;;;;;5038496;28;20026;-79
2021/06/13 04:28:52;;;;;;;10.63;3.10;;;11.10;99.90;;;;;;5039112;28;20017;-79
2021/06/13 04:31:19;;;;;;;13.18;3.47;;;11.20;99.90;;;;;;5038982;28;20056;-78
2021/06/13 04:33:47;;;;;;;7.18;2.55;;;11.30;99.90;;;;;;5021442;28;20025;-79
2021/06/13 04:36:14;;;;;;;8.27;3.63;;;11.40;99.90;;;;;;5024221;28;20093;-79
2021/06/13 04:38:40;;;;;;;12.70;3.00;;;11.50;99.90;;;;;;5040506;28;20022;-79
2021/06/13 04:41:07;;;;;;;7.25;2.65;;;11.50;99.90;;;;;;5039977;28;20026;-79
2021/06/13 04:43:35;;;;;;;10.65;3.75;;;11.70;99.90;;;;;;5039481;28;20040;-79
2021/06/13 04:46:02;;;;;;;13.75;4.47;;;11.80;99.90;;;;;;5021635;28;20018;-79
2021/06/13 04:48:27;;;;;;;10.95;3.25;;;11.90;99.90;;;;;;5021390;28;20048;-81
2021/06/13 04:50:58;;;;;;;9.75;3.55;;;12.00;99.90;;;;;;5039602;28;20017;-79
2021/06/13 04:53:49;;;;;;;12.25;3.60;;;12.10;99.90;;;;;;5021401;28;20025;-79
2021/06/13 04:56:26;;;;;;;10.35;4.05;;;12.20;99.90;;;;;;5041169;28;20029;-79
2021/06/13 04:58:51;;;;;;;10.35;2.80;;;12.30;99.90;;;;;;5022352;28;20120;-80
2021/06/13 05:01:17;;;;;;;9.57;3.55;;;12.50;99.90;;;;;;5038790;28;20049;-80
2021/06/13 05:03:43;;;;;;;14.82;4.03;;;12.60;99.90;;;;;;5021748;28;20029;-79
2021/06/13 05:06:09;;;;;;;10.70;3.38;;;12.70;99.90;;;;;;5040494;28;20386;-80
2021/06/13 05:08:35;;;;;;;5.85;2.95;;;12.80;99.90;;;;;;5021974;28;20032;-80
2021/06/13 05:11:00;;;;;;;15.23;3.33;;;13.00;99.90;;;;;;5039984;28;20017;-80
2021/06/13 05:13:26;;;;;;;9.75;2.58;;;13.00;99.90;;;;;;5040915;28;20025;-79
2021/06/13 05:15:52;;;;;;;9.93;2.95;;;13.10;99.90;;;;;;5040222;28;20029;-79
2021/06/13 05:18:17;;;;;;;14.18;3.90;;;13.20;99.90;;;;;;5022918;28;20021;-80
2021/06/13 05:20:43;;;;;;;11.07;2.70;;;13.30;99.90;;;;;;5020990;28;20404;-79
2021/06/13 05:23:09;;;;;;;8.45;2.80;;;13.50;99.90;;;;;;5038555;28;20021;-79
2021/06/13 05:25:37;;;;;;;10.80;3.42;;;13.60;99.90;;;;;;5038160;28;20030;-80
2021/06/13 05:28:06;;;;;;;9.45;2.10;;;13.70;99.90;;;;;;5020548;28;20108;-79
2021/06/13 05:30:33;;;;;;;15.57;2.78;;;13.80;99.90;;;;;;5038018;28;20024;-79
2021/06/13 05:33:00;;;;;;;14.00;2.53;;;13.90;99.90;;;;;;5020630;28;20026;-79
2021/06/13 05:35:26;;;;;;;6.07;2.30;;;14.00;99.90;;;;;;5019772;28;20025;-79
2021/06/13 05:37:51;;;;;;;13.70;2.33;;;14.10;99.90;;;;;;5020176;28;20391;-79
2021/06/13 05:40:18;;;;;;;7.57;2.33;;;14.20;99.90;;;;;;5037650;28;20092;-79
2021/06/13 05:42:44;;;;;;;10.82;2.38;;;14.30;99.90;;;;;;5020335;28;20128;-79
2021/06/13 05:45:13;;;;;;;13.27;2.85;;;14.40;99.90;;;;;;5037255;28;20029;-79
2021/06/13 05:47:39;;;;;;;10.82;1.98;;;14.50;99.90;;;;;;5037669;28;20026;-79
2021/06/13 05:50:08;;;;;;;11.88;3.15;;;14.50;99.90;;;;;;5020120;28;20022;-80
2021/06/13 05:52:33;;;;;;;7.88;1.75;;;14.60;99.90;;;;;;5038450;28;20391;-80
2021/06/13 05:54:59;;;;;;;8.05;1.90;;;14.70;99.90;;;;;;5038106;28;20021;-80
2021/06/13 05:57:30;;;;;;;8.57;1.63;;;14.80;99.90;;;;;;5038549;28;20025;-79
2021/06/13 06:00:01;;;;;;;8.18;1.85;;;14.90;99.90;;;;;;5038090;28;20029;-79
2021/06/13 06:02:26;;;;;;;7.97;1.60;;;15.00;99.90;;;;;;5038708;28;20603;-80
2021/06/13 06:04:52;;;;;;;8.02;1.38;;;15.10;99.90;;;;;;5019928;28;20081;-80
2021/06/13 06:07:18;;;;;;;8.70;1.48;;;15.20;99.90;;;;;;5038502;28;20014;-80
2021/06/13 06:09:44;;;;;;;7.97;1.30;;;15.20;99.90;;;;;;5037463;28;20052;-79
2021/06/13 06:12:10;;;;;;;11.85;2.13;;;15.30;99.90;;;;;;5019548;28;20067;-80
2021/06/13 06:14:36;;;;;;;9.82;2.00;;;15.40;99.90;;;;;;5037486;28;20057;-80
2021/06/13 06:17:01;;;;;;;7.68;1.10;;;15.50;99.90;;;;;;5037070;28;20483;-80
2021/06/13 06:19:27;;;;;;;7.78;1.80;;;15.60;99.90;;;;;;5037325;28;20017;-79
2021/06/13 06:21:53;;;;;;;8.95;1.45;;;15.60;99.90;;;;;;5036890;28;20051;-79
2021/06/13 06:24:18;;;;;;;10.93;1.90;;;15.70;99.90;;;;;;5020025;28;20030;-79
2021/06/13 06:26:44;;;;;;;7.03;0.90;;;15.80;99.90;;;;;;5037422;28;20017;-80
2021/06/13 06:29:09;;;;;;;4.85;0.85;;;15.90;99.90;;;;;;5037612;28;20025;-80
2021/06/13 06:31:35;;;;;;;3.75;1.00;;;15.80;99.90;;;;;;5018938;28;20025;-80
2021/06/13 06:34:01;;;;;;;10.23;2.58;;;15.90;99.90;;;;;;5019944;28;20013;-79
2021/06/13 06:36:26;;;;;;;4.85;0.80;;;16.00;99.90;;;;;;5038542;28;20111;-79
2021/06/13 06:38:52;;;;;;;5.43;1.25;;;16.10;99.90;;;;;;5037359;28;20055;-79
2021/06/13 06:41:17;;;;;;;5.22;0.90;;;16.20;99.90;;;;;;5019288;28;20076;-77
2021/06/13 06:43:43;;;;;;;10.88;1.52;;;16.30;99.90;;;;;;5017550;28;20025;-78
2021/06/13 06:46:08;;;;;;;5.60;1.40;;;16.40;99.90;;;;;;5035822;28;20017;-78
2021/06/13 06:48:34;;;;;;;8.13;1.15;;;16.50;99.90;;;;;;5036938;28;20063;-78
2021/06/13 06:50:59;;;;;;;6.50;0.85;;;16.50;99.90;;;;;;5018749;28;20095;-78
2021/06/13 06:53:25;;;;;;;5.75;1.30;;;16.50;99.90;;;;;;5037321;28;20025;-78
2021/06/13 06:55:50;;;;;;;6.35;1.58;;;16.60;99.90;;;;;;5018078;28;20029;-78
2021/06/13 06:58:16;;;;;;;6.20;1.13;;;16.60;99.90;;;;;;5018125;28;20037;-78
2021/06/13 07:00:42;;;;;;;3.85;0.70;;;16.60;99.90;;;;;;5018798;28;20017;-78
2021/06/13 07:03:11;;;;;;;5.13;0.73;;;16.70;99.90;;;;;;5018349;28;20036;-78
2021/06/13 07:05:37;;;;;;;6.60;1.38;;;16.80;99.00;;;;;;5036950;28;20024;-78
2021/06/13 07:08:03;;;;;;;5.90;0.95;;;16.70;98.90;;;;;;5040284;28;20021;-78
2021/06/13 07:10:29;;;;;;;4.63;0.45;;;16.80;97.90;;;;;;5040312;28;20075;-78
2021/06/13 07:12:54;;;;;;;3.45;0.60;;;16.70;97.00;;;;;;5039893;28;20083;-78
2021/06/13 07:15:20;;;;;;;4.00;0.60;;;17.10;96.60;;;;;;5039337;28;20108;-78
2021/06/13 07:17:46;;;;;;;7.30;0.90;;;16.90;97.10;;;;;;5040289;28;20048;-78
2021/06/13 07:20:12;;;;;;;4.70;0.50;;;17.00;97.60;;;;;;5021670;28;20029;-78
2021/06/13 07:22:39;;;;;;;2.33;0.52;;;17.00;96.50;;;;;;5020146;28;20108;-78
2021/06/13 07:25:08;;;;;;;1.52;0.50;;;17.10;95.50;;;;;;5038539;28;20032;-77
2021/06/13 07:27:34;;;;;;;5.07;0.73;;;17.10;93.10;;;;;;5038842;28;20022;-78
2021/06/13 07:30:00;;;;;;;7.22;0.47;;;17.40;93.80;;;;;;5039402;28;20025;-78
2021/06/13 07:32:25;;;;;;;5.95;1.15;;;17.20;93.70;;;;;;5039465;28;20029;-78
2021/06/13 07:34:51;;;;;;;4.85;0.88;;;17.30;92.30;;;;;;5038548;28;20033;-80
2021/06/13 07:37:17;;;;;;;1.67;0.60;;;17.30;93.30;;;;;;5021679;28;20017;-81
2021/06/13 07:39:43;;;;;;;1.90;0.50;;;17.50;91.80;;;;;;5021947;28;20048;-80
2021/06/13 07:42:09;;;;;;;6.22;0.93;;;17.60;91.10;;;;;;5040073;28;20026;-80
2021/06/13 07:44:35;;;;;;;8.43;0.57;;;17.80;89.90;;;;;;5038377;28;20120;-80
2021/06/13 07:47:01;;;;;;;4.25;0.65;;;17.60;84.40;;;;;;5039004;28;20100;-81
2021/06/13 07:49:27;;;;;;;5.72;0.20;;;17.70;85.80;;;;;;5021084;28;20064;-80
2021/06/13 07:51:53;;;;;;;4.53;0.52;;;17.80;83.50;;;;;;5020679;28;20108;-81
2021/06/13 07:54:19;;;;;;;1.25;0.20;;;17.80;82.40;;;;;;5039023;28;20022;-80
2021/06/13 07:56:44;;;;;;;1.98;0.25;;;18.10;84.10;;;;;;5038728;28;20041;-80
2021/06/13 07:59:10;;;;;;;3.40;0.22;;;18.20;79.50;;;;;;5020958;28;20155;-79
2021/06/13 08:01:36;;;;;;;2.33;0.47;;;18.20;77.60;;;;;;5021408;28;20032;-81
2021/06/13 08:04:03;;;;;;;3.22;0.30;;;18.30;82.00;;;;;;5021949;28;20135;-81
2021/06/13 08:06:28;;;;;;;5.05;0.30;;;18.40;76.00;;;;;;5022047;28;20116;-81
2021/06/13 08:08:54;;;;;;;1.48;0.10;;;18.50;73.60;;;;;;5021716;28;20446;-81
2021/06/13 08:11:19;;;;;;;4.38;0.38;;;18.40;73.20;;;;;;5039578;28;20363;-81
2021/06/13 08:13:45;;;;;;;4.50;0.35;;;18.40;71.30;;;;;;5022008;28;20375;-79
2021/06/13 08:16:11;;;;;;;4.55;0.40;;;18.50;72.50;;;;;;5039720;28;20029;-80
2021/06/13 08:18:36;;;;;;;4.55;0.57;;;18.50;73.10;;;;;;5021139;28;20028;-79
2021/06/13 08:21:02;;;;;;;4.95;0.25;;;18.60;74.60;;;;;;5038889;28;20026;-79
2021/06/13 08:23:30;;;;;;;5.13;0.55;;;18.70;71.70;;;;;;5039470;28;20017;-80
2021/06/13 08:25:56;;;;;;;1.77;0.25;;;18.90;74.50;;;;;;5021695;28;20026;-80
2021/06/13 08:28:21;;;;;;;4.70;0.38;;;18.90;73.20;;;;;;5021605;28;20043;-80
2021/06/13 08:30:48;;;;;;;3.70;0.50;;;19.20;75.40;;;;;;5023345;28;20394;-81
2021/06/13 08:33:14;;;;;;;5.80;0.30;;;19.20;74.40;;;;;;5024098;28;20021;-76
2021/06/13 08:35:40;;;;;;;5.70;0.10;;;19.20;70.20;;;;;;5022107;28;20380;-83
2021/06/13 08:38:05;;;;;;;3.25;1.00;;;19.20;69.00;;;;;;5021851;28;20024;-82
2021/06/13 08:40:32;;;;;;;2.08;0.32;;;19.40;70.40;;;;;;5022268;28;20080;-82
2021/06/13 08:42:58;;;;;;;3.13;0.30;;;19.50;66.40;;;;;;5020840;28;20028;-80
2021/06/13 08:45:24;;;;;;;1.52;0.28;;;19.40;64.50;;;;;;5020276;28;20021;-80
2021/06/13 08:47:54;;;;;;;3.28;0.63;;;19.30;68.70;;;;;;5020000;28;20048;-80
2021/06/13 08:50:20;;;;;;;2.58;0.28;;;19.50;71.50;;;;;;5020107;28;20033;-80
2021/06/13 08:52:50;;;;;;;8.35;0.88;;;19.70;70.40;;;;;;5038024;28;20509;-80
2021/06/13 08:55:17;;;;;;;8.48;0.43;;;19.80;67.90;;;;;;5019937;28;20025;-80
2021/06/13 08:57:42;;;;;;;4.57;0.82;;;20.00;69.40;;;;;;5037720;28;20025;-80
2021/06/13 09:00:14;;;;;;;2.78;0.65;;;20.20;72.40;;;;;;5037735;28;20075;-80
2021/06/13 09:02:41;;;;;;;2.53;0.73;;;20.10;66.50;;;;;;5037638;28;20548;-80
2021/06/13 09:05:08;;;;;;;2.25;0.20;;;20.00;64.80;;;;;;5019867;28;20021;-79
2021/06/13 09:07:36;;;;;;;2.03;0.32;;;19.90;65.00;;;;;;5019499;28;20060;-80
2021/06/13 09:10:09;;;;;;;3.65;0.15;;;19.90;66.80;;;;;;5019629;28;20060;-79
2021/06/13 09:12:36;;;;;;;4.40;0.30;;;19.90;65.80;;;;;;5020446;28;20433;-79
2021/06/13 09:15:03;;;;;;;3.25;0.65;;;20.00;63.80;;;;;;5037610;28;20026;-80
2021/06/13 09:17:29;;;;;;;3.83;0.75;;;19.90;63.90;;;;;;5036922;28;20060;-80
2021/06/13 09:20:19;;;;;;;2.17;0.30;;;19.90;61.10;;;;;;5037345;28;20036;-80
2021/06/13 09:23:15;;;;;;;0.93;0.43;;;19.90;62.60;;;;;;5037483;28;20029;-80
2021/06/13 09:25:43;;;;;;;2.63;0.28;;;20.20;64.70;;;;;;5019409;28;20457;-80
2021/06/13 09:28:18;;;;;;;22.03;0.63;;;20.40;61.50;;;;;;5019443;28;20021;-80
2021/06/13 09:30:46;;;;;;;3.83;0.45;;;20.50;63.10;;;;;;5036224;28;20021;-81
2021/06/13 09:33:31;;;;;;;1.15;0.20;;;20.60;62.80;;;;;;5037982;28;20021;-79
2021/06/13 09:35:59;;;;;;;4.30;0.60;;;20.90;62.10;;;;;;5036594;28;20069;-79
2021/06/13 09:38:25;;;;;;;4.00;0.20;;;21.10;60.40;;;;;;5024327;28;20029;-79
2021/06/13 09:40:57;;;;;;;0.57;0.10;;;21.20;59.80;;;;;;5025174;28;20037;-79
2021/06/13 09:43:36;;;;;;;2.55;0.10;;;21.20;57.60;;;;;;5040553;28;20053;-79
2021/06/13 09:46:07;;;;;;;1.10;0.38;;;21.10;54.90;;;;;;5021990;28;20021;-81
2021/06/13 09:48:33;;;;;;;0.82;0.00;;;21.00;55.50;;;;;;5019554;28;20029;-80
2021/06/13 09:51:04;;;;;;;3.90;0.20;;;21.00;55.10;;;;;;5039627;28;20371;-78
2021/06/13 09:53:36;;;;;;;2.05;0.15;;;21.10;56.80;;;;;;5039664;28;20026;-78
2021/06/13 09:56:06;;;;;;;3.13;0.30;;;21.20;54.90;;;;;;5037209;28;20071;-81
2021/06/13 09:58:33;;;;;;;4.68;0.20;;;21.70;55.60;;;;;;5018135;28;20021;-80
2021/06/13 10:01:10;;;;;;;3.03;0.10;;;21.40;58.90;;;;;;5019996;28;20021;-80
2021/06/13 10:03:37;;;;;;;6.75;0.10;;;21.60;55.40;;;;;;5023994;28;20059;-80
2021/06/13 10:06:07;;;;;;;6.63;0.40;;;22.10;54.80;;;;;;5043128;28;20022;-79
2021/06/13 10:08:34;;;;;;;3.53;0.77;;;21.70;55.10;;;;;;5043134;28;20021;-80
2021/06/13 10:11:03;;;;;;;1.73;0.13;;;21.70;56.70;;;;;;5025614;28;20017;-80
2021/06/13 10:13:39;;;;;;;3.30;0.10;;;22.00;57.50;;;;;;5024420;28;20045;-80
2021/06/13 10:16:06;;;;;;;6.88;0.95;;;22.10;56.70;;;;;;5041359;28;20064;-80
2021/06/13 10:18:32;;;;;;;1.58;0.25;;;22.40;52.40;;;;;;5040680;28;20052;-80
2021/06/13 10:21:11;;;;;;;1.60;0.20;;;21.90;52.90;;;;;;5024572;28;20033;-79
2021/06/13 10:23:40;;;;;;;2.63;0.05;;;22.10;55.10;;;;;;5022564;28;20029;-80
2021/06/13 10:26:07;;;;;;;4.35;0.10;;;22.20;58.50;;;;;;5042072;28;20394;-80
2021/06/13 10:28:34;;;;;;;2.35;0.38;;;22.60;55.30;;;;;;5041597;28;20017;-80
2021/06/13 10:31:00;;;;;;;7.63;0.32;;;22.60;54.60;;;;;;5025118;28;20021;-80
2021/06/13 10:33:26;;;;;;;5.72;0.50;;;23.00;56.70;;;;;;5024281;28;20457;-80
2021/06/13 10:35:56;;;;;;;4.10;0.28;;;22.80;54.30;;;;;;5040904;28;20033;-81
2021/06/13 10:38:22;;;;;;;1.75;0.32;;;22.80;54.20;;;;;;5042493;28;20426;-81
2021/06/13 10:40:47;;;;;;;3.65;0.20;;;22.90;53.20;;;;;;5024024;28;20093;-79
2021/06/13 10:43:24;;;;;;;1.38;0.10;;;22.70;54.20;;;;;;5021263;28;20034;-80
2021/06/13 10:45:50;;;;;;;6.07;0.35;;;23.00;55.90;;;;;;5039141;28;20029;-80
2021/06/13 10:48:16;;;;;;;5.20;1.17;;;23.20;58.20;;;;;;5038896;28;20033;-79
2021/06/13 10:50:43;;;;;;;1.63;0.13;;;23.50;57.50;;;;;;5040732;28;20014;-79
2021/06/13 10:53:10;;;;;;;5.25;0.70;;;23.40;52.80;;;;;;5038110;28;20521;-80
2021/06/13 10:55:50;;;;;;;2.42;0.52;;;23.30;53.90;;;;;;5034108;28;20018;-78
2021/06/13 10:58:48;;;;;;;3.35;0.30;;;23.20;53.70;;;;;;5020653;28;20064;-80
2021/06/13 11:01:28;;;;;;;3.08;0.10;;;23.00;53.00;;;;;;5020949;28;20021;-79
2021/06/13 11:04:02;;;;;;;6.53;0.40;;;23.00;58.20;;;;;;5020289;28;20453;-79
2021/06/13 11:06:37;;;;;;;2.47;0.35;;;23.50;58.50;;;;;;5020621;28;20387;-79
2021/06/13 11:09:05;;;;;;;3.13;0.47;;;24.00;56.60;;;;;;5038690;28;20025;-79
2021/06/13 11:11:35;;;;;;;6.18;0.50;;;24.40;52.50;;;;;;5020021;28;20021;-78
2021/06/13 11:14:36;;;;;;;2.42;0.28;;;24.20;53.00;;;;;;5039145;28;20382;-79
2021/06/13 11:17:02;;;;;;;2.70;0.40;;;24.50;54.70;;;;;;4939745;29;20031;-79
2021/06/13 11:19:34;;;;;;;2.97;0.50;;;24.40;52.50;;;;;;5022347;28;20490;-79
2021/06/13 11:22:18;;;;;;;3.53;0.50;;;24.00;53.10;;;;;;5023555;28;20025;-79
2021/06/13 11:24:48;;;;;;;5.55;0.68;;;24.30;55.10;;;;;;5040238;28;20074;-79
2021/06/13 11:27:15;;;;;;;4.90;0.22;;;24.70;55.20;;;;;;5023214;28;20057;-79
2021/06/13 11:29:49;;;;;;;2.50;0.30;;;24.90;52.40;;;;;;5021745;28;20021;-80
2021/06/13 11:32:15;;;;;;;3.38;0.30;;;25.10;52.80;;;;;;5040401;28;20359;-80
2021/06/13 11:34:48;;;;;;;1.25;0.15;;;25.30;53.60;;;;;;5040440;28;20044;-79
2021/06/13 11:37:24;;;;;;;1.20;0.17;;;25.40;48.40;;;;;;5021374;28;20033;-80
2021/06/13 11:39:55;;;;;;;4.28;0.70;;;25.00;49.00;;;;;;5040462;28;20030;-79
2021/06/13 11:42:22;;;;;;;1.92;0.43;;;25.00;52.10;;;;;;5022087;28;20064;-79
2021/06/13 11:44:50;;;;;;;3.33;0.32;;;25.20;51.30;;;;;;5039145;28;20029;-80
2021/06/13 11:47:32;;;;;;;2.13;0.50;;;25.30;51.70;;;;;;5020590;28;20108;-80
2021/06/13 11:49:58;;;;;;;3.15;0.45;;;25.70;51.30;;;;;;5039651;28;20437;-80
2021/06/13 11:52:46;;;;;;;2.10;0.55;;;25.90;51.80;;;;;;5038894;28;20486;-80
2021/06/13 11:55:12;;;;;;;2.08;0.60;;;26.10;50.50;;;;;;5043977;28;20378;-80
2021/06/13 11:57:38;;;;;;;4.13;0.20;;;26.30;51.70;;;;;;5024933;28;20026;-80
2021/06/13 12:00:13;;;;;;;4.40;0.45;;;26.50;50.80;;;;;;5042610;28;20029;-80
2021/06/13 12:02:38;;;;;;;1.60;0.20;;;26.50;49.60;;;;;;5041503;28;20030;-79
2021/06/13 12:05:06;;;;;;;3.10;0.32;;;26.70;49.10;;;;;;5024016;28;20048;-80
2021/06/13 12:07:39;;;;;;;5.50;0.38;;;26.50;49.10;;;;;;5042259;28;20060;-80
2021/06/13 12:10:29;;;;;;;2.88;0.30;;;26.70;49.10;;;;;;5041457;28;20029;-80
2021/06/13 12:13:07;;;;;;;3.13;0.52;;;26.40;47.10;;;;;;5025535;28;20038;-79
2021/06/13 12:15:33;;;;;;;3.92;0.38;;;26.50;48.60;;;;;;5040229;28;20018;-78
2021/06/13 12:17:59;;;;;;;1.95;0.50;;;26.50;46.20;;;;;;5020562;28;20105;-78
2021/06/13 12:20:26;;;;;;;2.67;0.47;;;26.20;47.90;;;;;;5020718;28;20022;-82
2021/06/13 12:28:08;;;;;;;4.07;0.30;;;26.10;48.40;;;;;;5040783;28;20044;-83
2021/06/13 12:30:35;;;;;;;5.55;0.20;;;26.60;47.50;;;;;;5022221;28;20014;-79
2021/06/13 12:33:07;;;;;;;2.33;0.40;;;26.80;47.00;;;;;;5020113;28;20025;-79
2021/06/13 12:35:46;;;;;;;3.42;0.35;;;27.20;47.90;;;;;;5047687;23;20037;-79
2021/06/13 12:38:21;;;;;;;2.88;0.20;;;27.20;45.60;;;;;;5017387;28;20025;-80
2021/06/13 12:40:55;;;;;;;2.20;0.30;;;26.80;47.00;;;;;;5019197;28;20102;-79
2021/06/13 12:43:39;;;;;;;2.67;0.70;;;27.10;45.70;;;;;;5000739;28;20026;-80
2021/06/13 12:46:06;;;;;;;2.60;0.55;;;26.70;45.60;;;;;;5018140;28;20026;-80
2021/06/13 12:48:32;;;;;;;7.35;0.13;;;27.20;45.50;;;;;;5016459;28;20060;-81
2021/06/13 12:50:58;;;;;;;2.10;0.17;;;27.30;43.90;;;;;;5017576;28;20048;-81
2021/06/13 12:53:34;;;;;;;3.30;0.30;;;27.40;45.70;;;;;;5018736;28;20014;-81
2021/06/13 12:56:00;;;;;;;2.83;0.35;;;27.40;43.90;;;;;;5017572;28;20025;-81